createdAt,value
2023-02-16T00:00:24.107Z,57.40
2023-02-16T00:02:51.766Z,57.43
2023-02-16T00:05:34.851Z,57.66
2023-02-16T00:08:02.534Z,57.22
2023-02-16T00:10:32.270Z,57.53
2023-02-16T00:13:18.153Z,57.50
2023-02-16T00:15:46.304Z,57.61
2023-02-16T00:18:18.746Z,57.11
2023-02-16T00:20:46.555Z,57.25
2023-02-16T00:23:13.983Z,57.29
2023-02-16T00:25:41.415Z,57.45
2023-02-16T00:28:15.728Z,57.50
2023-02-16T00:30:45.621Z,57.51
2023-02-16T00:33:20.240Z,57.88
2023-02-16T00:35:47.998Z,57.56
2023-02-16T00:38:16.562Z,57.25
2023-02-16T00:40:44.150Z,57.34
2023-02-16T00:43:23.561Z,57.35
2023-02-16T00:45:51.692Z,56.95
2023-02-16T00:48:19.174Z,57.12
2023-02-16T00:50:46.581Z,57.62
2023-02-16T00:53:14.446Z,57.45
2023-02-16T00:55:42.878Z,57.55
2023-02-16T00:58:36.689Z,57.44
2023-02-16T01:01:11.129Z,57.30
2023-02-16T01:03:38.727Z,57.06
2023-02-16T01:06:24.914Z,57.70
2023-02-16T01:09:13.061Z,57.89
2023-02-16T01:11:40.721Z,57.30
2023-02-16T01:14:12.119Z,57.09
2023-02-16T01:16:41.637Z,57.29
2023-02-16T01:19:11.630Z,57.31
2023-02-16T01:21:39.697Z,57.60
2023-02-16T01:24:07.343Z,57.53
2023-02-16T01:26:41.012Z,57.61
2023-02-16T01:29:14.732Z,57.55
2023-02-16T01:31:43.143Z,57.31
2023-02-16T01:34:10.915Z,57.13
2023-02-16T01:36:40.387Z,57.47
2023-02-16T01:39:12.775Z,57.22
2023-02-16T01:42:14.300Z,57.55
2023-02-16T01:44:59.747Z,57.33
2023-02-16T01:47:47.605Z,57.67
2023-02-16T01:50:24.582Z,57.11
2023-02-16T01:52:59.116Z,57.40
2023-02-16T01:55:33.004Z,57.77
2023-02-16T01:58:35.789Z,57.73
2023-02-16T02:01:04.998Z,57.96
2023-02-16T02:03:54.609Z,57.97
2023-02-16T02:06:26.662Z,57.55
2023-02-16T02:09:16.638Z,57.71
2023-02-16T02:11:57.530Z,57.88
2023-02-16T02:14:35.784Z,57.55
2023-02-16T02:17:08.241Z,57.32
2023-02-16T02:20:04.840Z,57.70
2023-02-16T02:23:06.362Z,57.40
2023-02-16T02:25:51.726Z,57.53
2023-02-16T02:28:53.247Z,57.71
2023-02-16T02:31:46.275Z,57.88
2023-02-16T02:34:19.400Z,57.91
2023-02-16T02:37:19.244Z,57.88
2023-02-16T02:39:58.793Z,58.01
2023-02-16T02:42:34.056Z,57.99
2023-02-16T02:45:13.831Z,57.74
2023-02-16T02:47:44.265Z,57.93
2023-02-16T02:50:41.455Z,58.04
2023-02-16T02:53:13.502Z,57.56
2023-02-16T02:56:04.075Z,57.65
2023-02-16T02:58:52.600Z,57.69
2023-02-16T03:01:20.751Z,57.40
2023-02-16T03:03:54.774Z,57.39
2023-02-16T03:06:34.446Z,57.64
2023-02-16T03:09:08.892Z,57.54
2023-02-16T03:11:54.741Z,57.82
2023-02-16T03:14:24.879Z,57.35
2023-02-16T03:17:16.213Z,57.63
2023-02-16T03:20:04.694Z,57.35
2023-02-16T03:22:51.164Z,57.32
2023-02-16T03:25:38.727Z,57.49
2023-02-16T03:28:26.714Z,57.56
2023-02-16T03:30:55.289Z,57.71
2023-02-16T03:33:23.640Z,57.63
2023-02-16T03:35:51.691Z,58.00
2023-02-16T03:38:19.849Z,57.69
2023-02-16T03:40:48.274Z,57.68
2023-02-16T03:43:15.637Z,58.05
2023-02-16T03:45:44.827Z,58.08
2023-02-16T03:48:12.480Z,57.95
2023-02-16T03:50:39.986Z,57.70
2023-02-16T03:53:07.914Z,57.48
2023-02-16T03:55:36.974Z,57.38
2023-02-16T03:58:05.276Z,57.73
2023-02-16T04:00:34.176Z,58.07
2023-02-16T04:03:03.133Z,57.68
2023-02-16T04:05:30.801Z,57.56
2023-02-16T04:07:58.188Z,57.27
2023-02-16T04:10:25.825Z,57.40
2023-02-16T04:12:53.448Z,57.85
2023-02-16T04:15:23.207Z,57.82
2023-02-16T04:17:50.954Z,57.74
2023-02-16T04:20:20.311Z,57.29
2023-02-16T04:22:49.906Z,57.37
2023-02-16T04:25:18.874Z,57.36
2023-02-16T04:27:47.245Z,57.85
2023-02-16T04:30:20.313Z,57.87
2023-02-16T04:32:48.443Z,57.36
2023-02-16T04:35:16.285Z,57.46
2023-02-16T04:37:43.981Z,57.46
2023-02-16T04:40:13.822Z,57.13
2023-02-16T04:42:42.269Z,57.62
2023-02-16T04:45:10.576Z,57.95
2023-02-16T04:47:38.287Z,58.18
2023-02-16T04:50:06.371Z,57.71
2023-02-16T04:52:34.352Z,57.88
2023-02-16T04:55:02.299Z,58.05
2023-02-16T04:57:29.800Z,57.83
2023-02-16T04:59:57.186Z,56.96
2023-02-16T05:02:24.836Z,57.24
2023-02-16T05:04:52.217Z,57.02
2023-02-16T05:07:19.690Z,57.32
2023-02-16T05:09:47.539Z,56.92
2023-02-16T05:12:33.257Z,57.26
2023-02-16T05:15:01.001Z,57.61
2023-02-16T05:17:28.561Z,57.60
2023-02-16T05:19:58.217Z,57.72
2023-02-16T05:22:26.396Z,57.95
2023-02-16T05:24:53.768Z,57.65
2023-02-16T05:27:29.031Z,57.36
2023-02-16T05:29:58.087Z,57.02
2023-02-16T05:32:26.005Z,57.29
2023-02-16T05:34:53.626Z,56.86
2023-02-16T05:37:21.367Z,57.08
2023-02-16T05:39:48.779Z,57.08
2023-02-16T05:42:16.199Z,57.04
2023-02-16T05:44:43.905Z,57.13
2023-02-16T05:47:11.357Z,56.96
2023-02-16T05:49:38.747Z,57.39
2023-02-16T05:52:06.382Z,57.13
2023-02-16T05:54:33.778Z,57.45
2023-02-16T05:57:01.459Z,57.23
2023-02-16T05:59:29.142Z,57.62
2023-02-16T06:01:56.610Z,57.13
2023-02-16T06:04:24.574Z,57.08
2023-02-16T06:06:52.052Z,57.33
2023-02-16T06:09:19.509Z,57.14
2023-02-16T06:11:47.152Z,57.24
2023-02-16T06:14:19.668Z,57.66
2023-02-16T06:16:49.220Z,57.24
2023-02-16T06:19:18.120Z,57.17
2023-02-16T06:21:46.110Z,57.19
2023-02-16T06:24:14.877Z,57.06
2023-02-16T06:26:42.512Z,57.19
2023-02-16T06:29:09.920Z,57.45
2023-02-16T06:31:37.737Z,57.11
2023-02-16T06:34:05.462Z,57.05
2023-02-16T06:36:33.289Z,57.15
2023-02-16T06:39:00.929Z,56.50
2023-02-16T06:41:40.859Z,56.71
2023-02-16T06:44:13.498Z,56.16
2023-02-16T06:46:41.991Z,56.82
2023-02-16T06:49:14.474Z,56.48
2023-02-16T06:51:41.943Z,56.68
2023-02-16T06:54:09.703Z,56.75
2023-02-16T06:56:38.023Z,56.60
2023-02-16T06:59:05.958Z,56.51
2023-02-16T07:01:33.754Z,56.11
2023-02-16T07:04:01.165Z,68.53
2023-02-16T07:06:30.812Z,62.43
2023-02-16T07:08:59.159Z,57.84
2023-02-16T07:11:26.603Z,56.28
2023-02-16T07:13:53.968Z,55.67
2023-02-16T07:16:21.758Z,55.65
2023-02-16T07:18:49.176Z,54.96
2023-02-16T07:21:16.651Z,55.05
2023-02-16T07:23:44.367Z,55.70
2023-02-16T07:26:11.816Z,55.48
2023-02-16T07:28:39.377Z,55.55
2023-02-16T07:31:09.503Z,55.64
2023-02-16T07:33:37.429Z,57.72
2023-02-16T07:36:05.643Z,60.52
2023-02-16T07:38:33.464Z,56.89
2023-02-16T07:41:00.903Z,56.86
2023-02-16T07:43:28.303Z,56.76
2023-02-16T07:45:56.707Z,56.41
2023-02-16T07:48:24.240Z,56.40
2023-02-16T07:50:51.699Z,55.98
2023-02-16T07:53:19.418Z,55.61
2023-02-16T07:55:46.914Z,56.24
2023-02-16T07:58:27.510Z,56.14
2023-02-16T08:01:08.289Z,56.98
2023-02-16T08:03:36.154Z,56.48
2023-02-16T08:06:04.356Z,56.35
2023-02-16T08:08:32.167Z,55.84
2023-02-16T08:11:00.377Z,55.51
2023-02-16T08:13:27.803Z,55.74
2023-02-16T08:15:55.190Z,55.43
2023-02-16T08:18:22.818Z,55.40
2023-02-16T08:21:03.360Z,55.26
2023-02-16T08:23:32.191Z,55.10
2023-02-16T08:26:00.079Z,54.59
2023-02-16T08:28:28.738Z,54.99
2023-02-16T08:30:56.992Z,54.40
2023-02-16T08:33:25.037Z,54.39
2023-02-16T08:35:52.442Z,54.12
2023-02-16T08:38:23.255Z,54.09
2023-02-16T08:40:51.343Z,56.76
2023-02-16T08:43:18.874Z,53.11
2023-02-16T08:45:47.699Z,52.98
2023-02-16T08:48:16.890Z,52.84
2023-02-16T08:50:53.792Z,52.39
2023-02-16T08:53:23.220Z,52.64
2023-02-16T08:55:57.954Z,52.36
2023-02-16T08:58:26.821Z,52.28
2023-02-16T09:00:54.350Z,52.33
2023-02-16T09:03:21.869Z,52.67
2023-02-16T09:05:51.206Z,52.51
2023-02-16T09:08:19.553Z,52.83
2023-02-16T09:10:46.953Z,52.89
2023-02-16T09:13:14.957Z,53.56
2023-02-16T09:15:43.389Z,53.34
2023-02-16T09:18:12.706Z,52.93
2023-02-16T09:20:43.813Z,52.86
2023-02-16T09:23:15.043Z,52.64
2023-02-16T09:25:42.725Z,51.74
2023-02-16T09:28:10.879Z,50.95
2023-02-16T09:30:39.379Z,51.18
2023-02-16T09:33:07.802Z,50.73
2023-02-16T09:35:35.370Z,50.42
2023-02-16T09:38:02.747Z,50.41
2023-02-16T09:40:30.403Z,50.09
2023-02-16T09:43:29.530Z,49.53
2023-02-16T09:45:58.864Z,49.58
2023-02-16T09:48:36.626Z,49.88
2023-02-16T09:51:05.548Z,49.46
2023-02-16T09:53:37.226Z,49.46
2023-02-16T09:56:36.566Z,49.51
2023-02-16T09:59:14.812Z,48.54
2023-02-16T10:01:55.095Z,48.47
2023-02-16T10:04:47.684Z,48.27
2023-02-16T10:07:37.366Z,48.29
2023-02-16T10:10:07.550Z,47.79
2023-02-16T10:12:40.688Z,47.70
2023-02-16T10:15:15.043Z,47.92
2023-02-16T10:17:47.461Z,48.29
2023-02-16T10:20:23.864Z,48.08
2023-02-16T10:23:32.220Z,47.70
2023-02-16T10:26:06.628Z,46.92
2023-02-16T10:28:43.094Z,47.36
2023-02-16T10:31:28.682Z,46.50
2023-02-16T10:34:05.376Z,46.99
2023-02-16T10:36:51.895Z,46.79
2023-02-16T10:39:28.733Z,47.13
2023-02-16T10:42:16.466Z,45.87
2023-02-16T10:44:48.710Z,46.39
2023-02-16T10:47:33.511Z,46.45
2023-02-16T10:50:00.950Z,46.43
2023-02-16T10:52:36.048Z,46.43
2023-02-16T10:55:03.956Z,45.86
2023-02-16T10:57:32.840Z,45.66
2023-02-16T11:00:08.140Z,46.07
2023-02-16T11:02:42.169Z,46.55
2023-02-16T11:05:31.304Z,46.97
2023-02-16T11:08:03.234Z,46.95
2023-02-16T11:10:48.761Z,46.23
2023-02-16T11:13:32.490Z,46.10
2023-02-16T11:16:10.840Z,46.39
2023-02-16T11:18:43.408Z,46.27
2023-02-16T11:21:12.199Z,45.98
2023-02-16T11:23:44.972Z,45.95
2023-02-16T11:26:12.414Z,45.34
2023-02-16T11:28:45.872Z,45.64
2023-02-16T11:31:28.873Z,45.71
2023-02-16T11:34:06.446Z,45.95
2023-02-16T11:36:37.686Z,46.23
2023-02-16T11:39:21.656Z,45.84
2023-02-16T11:41:53.761Z,46.12
2023-02-16T11:44:27.161Z,45.44
2023-02-16T11:46:56.539Z,45.28
2023-02-16T11:49:39.798Z,48.51
2023-02-16T11:52:23.131Z,45.79
2023-02-16T11:54:55.998Z,45.22
2023-02-16T11:57:28.457Z,45.17
2023-02-16T11:59:57.638Z,44.90
2023-02-16T12:02:48.484Z,45.29
2023-02-16T12:05:29.851Z,45.56
2023-02-16T12:08:08.227Z,45.60
2023-02-16T12:10:43.349Z,45.79
2023-02-16T12:13:26.506Z,45.85
2023-02-16T12:16:03.259Z,45.94
2023-02-16T12:18:56.321Z,46.07
2023-02-16T12:21:34.745Z,46.22
2023-02-16T12:24:18.512Z,45.88
2023-02-16T12:27:00.692Z,45.38
2023-02-16T12:29:53.703Z,45.63
2023-02-16T12:32:31.138Z,45.59
2023-02-16T12:35:50.390Z,45.43
2023-02-16T12:38:24.749Z,45.43
2023-02-16T12:41:17.211Z,45.59
2023-02-16T12:43:47.797Z,45.80
2023-02-16T12:46:29.266Z,46.46
2023-02-16T12:49:21.256Z,46.40
2023-02-16T12:52:08.707Z,45.27
2023-02-16T12:54:45.525Z,45.36
2023-02-16T12:57:15.881Z,45.77
2023-02-16T12:59:59.698Z,45.99
2023-02-16T13:02:43.457Z,45.92
2023-02-16T13:05:14.908Z,45.84
2023-02-16T13:07:44.332Z,46.39
2023-02-16T13:10:26.840Z,46.29
2023-02-16T13:12:58.292Z,46.02
2023-02-16T13:15:32.035Z,46.43
2023-02-16T13:18:10.725Z,46.34
2023-02-16T13:20:41.461Z,46.61
2023-02-16T13:23:43.265Z,46.38
2023-02-16T13:26:23.035Z,46.90
2023-02-16T13:29:25.026Z,46.57
2023-02-16T13:32:09.339Z,46.12
2023-02-16T13:34:43.033Z,47.03
2023-02-16T13:37:38.352Z,47.08
2023-02-16T13:40:12.085Z,47.43
2023-02-16T13:42:52.732Z,47.36
2023-02-16T13:45:23.151Z,47.46
2023-02-16T13:47:52.267Z,48.27
2023-02-16T13:50:23.770Z,47.65
2023-02-16T13:52:53.716Z,48.19
2023-02-16T13:55:29.092Z,48.36
2023-02-16T13:58:00.196Z,48.34
2023-02-16T14:00:35.465Z,48.48
2023-02-16T14:03:16.609Z,48.16
2023-02-16T14:05:46.583Z,47.84
2023-02-16T14:08:25.632Z,47.80
2023-02-16T14:10:55.920Z,47.76
2023-02-16T14:13:29.730Z,47.45
2023-02-16T14:16:03.261Z,47.48
2023-02-16T14:18:54.138Z,47.79
2023-02-16T14:21:39.500Z,47.73
2023-02-16T14:24:12.840Z,47.43
2023-02-16T14:27:04.182Z,47.79
2023-02-16T14:29:41.826Z,47.42
2023-02-16T14:32:09.370Z,48.03
2023-02-16T14:34:41.177Z,47.99
2023-02-16T14:37:16.158Z,47.91
2023-02-16T14:40:06.570Z,47.74
2023-02-16T14:42:34.226Z,47.55
2023-02-16T14:45:20.836Z,47.44
2023-02-16T14:48:06.752Z,47.59
2023-02-16T14:50:54.190Z,47.66
2023-02-16T14:53:46.373Z,47.71
2023-02-16T14:56:45.530Z,47.71
2023-02-16T14:59:39.167Z,47.67
2023-02-16T15:02:41.790Z,47.67
2023-02-16T15:05:17.755Z,48.53
2023-02-16T15:07:52.206Z,48.90
2023-02-16T15:10:29.057Z,48.92
2023-02-16T15:12:57.323Z,48.66
2023-02-16T15:15:37.446Z,48.72
2023-02-16T15:18:08.285Z,48.80
2023-02-16T15:20:38.528Z,48.95
2023-02-16T15:23:25.093Z,48.86
2023-02-16T15:26:01.793Z,49.16
2023-02-16T15:28:33.754Z,49.31
2023-02-16T15:31:06.726Z,49.38
2023-02-16T15:33:40.947Z,49.38
2023-02-16T15:36:13.413Z,49.79
2023-02-16T15:39:00.369Z,49.69
2023-02-16T15:41:33.756Z,49.98
2023-02-16T15:44:03.522Z,49.77
2023-02-16T15:46:37.766Z,49.98
2023-02-16T15:49:14.782Z,50.02
2023-02-16T15:51:43.151Z,49.82
2023-02-16T15:54:22.563Z,49.85
2023-02-16T15:56:55.090Z,50.54
2023-02-16T15:59:33.576Z,50.49
2023-02-16T16:02:40.723Z,50.42
2023-02-16T16:05:09.975Z,50.44
2023-02-16T16:07:42.181Z,50.50
2023-02-16T16:10:15.886Z,50.31
2023-02-16T16:12:44.279Z,50.68
2023-02-16T16:15:22.898Z,50.56
2023-02-16T16:17:52.442Z,50.80
2023-02-16T16:20:26.056Z,51.09
2023-02-16T16:22:58.227Z,50.89
2023-02-16T16:25:35.262Z,50.67
2023-02-16T16:28:05.364Z,50.74
2023-02-16T16:30:37.494Z,51.09
2023-02-16T16:33:07.548Z,51.29
2023-02-16T16:35:49.747Z,51.25
2023-02-16T16:38:25.930Z,51.46
2023-02-16T16:40:58.545Z,51.50
2023-02-16T16:43:37.233Z,51.69
2023-02-16T16:46:20.279Z,51.88
2023-02-16T16:48:49.519Z,51.84
2023-02-16T16:51:31.222Z,51.90
2023-02-16T16:54:04.238Z,51.87
2023-02-16T16:56:39.401Z,52.02
2023-02-16T16:59:06.870Z,52.20
2023-02-16T17:01:37.669Z,52.25
2023-02-16T17:04:05.054Z,52.26
2023-02-16T17:06:32.468Z,52.29
2023-02-16T17:09:06.292Z,52.51
2023-02-16T17:11:37.980Z,52.53
2023-02-16T17:14:26.390Z,52.67
2023-02-16T17:16:56.294Z,52.70
2023-02-16T17:19:24.022Z,53.07
2023-02-16T17:21:51.378Z,53.19
2023-02-16T17:24:36.750Z,53.00
2023-02-16T17:27:04.577Z,53.04
2023-02-16T17:29:32.010Z,52.88
2023-02-16T17:31:59.722Z,53.00
2023-02-16T17:34:30.897Z,53.40
2023-02-16T17:37:00.179Z,53.56
2023-02-16T17:39:27.830Z,53.73
2023-02-16T17:41:55.638Z,53.81
2023-02-16T17:44:23.585Z,53.95
2023-02-16T17:46:52.066Z,54.03
2023-02-16T17:49:23.078Z,54.12
2023-02-16T17:51:51.342Z,54.22
2023-02-16T17:54:19.243Z,54.17
2023-02-16T17:56:47.461Z,54.13
2023-02-16T17:59:15.852Z,54.23
2023-02-16T18:01:44.349Z,54.25
2023-02-16T18:04:15.291Z,54.19
2023-02-16T18:06:43.235Z,54.22
2023-02-16T18:09:16.080Z,54.50
2023-02-16T18:11:44.242Z,54.56
2023-02-16T18:14:12.546Z,54.64
2023-02-16T18:16:40.372Z,54.79
2023-02-16T18:19:13.580Z,54.66
2023-02-16T18:21:41.302Z,55.58
2023-02-16T18:24:08.932Z,55.30
2023-02-16T18:26:36.398Z,55.09
2023-02-16T18:29:05.929Z,55.28
2023-02-16T18:31:33.746Z,55.56
2023-02-16T18:34:01.777Z,55.89
2023-02-16T18:36:29.793Z,56.31
2023-02-16T18:38:57.783Z,56.32
2023-02-16T18:41:25.836Z,56.13
2023-02-16T18:43:53.304Z,56.51
2023-02-16T18:46:21.778Z,56.62
2023-02-16T18:48:49.817Z,57.09
2023-02-16T18:51:17.786Z,56.93
2023-02-16T18:53:45.492Z,56.94
2023-02-16T18:56:12.941Z,57.62
2023-02-16T18:58:40.322Z,57.49
2023-02-16T19:01:30.965Z,57.46
2023-02-16T19:04:00.487Z,57.46
2023-02-16T19:06:28.663Z,57.77
2023-02-16T19:08:59.013Z,58.35
2023-02-16T19:11:28.170Z,58.65
2023-02-16T19:13:56.913Z,58.14
2023-02-16T19:16:33.796Z,58.38
2023-02-16T19:19:01.501Z,58.23
2023-02-16T19:21:29.581Z,58.10
2023-02-16T19:23:57.014Z,57.85
2023-02-16T19:26:24.722Z,57.70
2023-02-16T19:28:53.406Z,58.08
2023-02-16T19:31:26.419Z,58.21
2023-02-16T19:33:54.677Z,58.23
2023-02-16T19:36:22.658Z,57.94
2023-02-16T19:38:50.371Z,58.46
2023-02-16T19:41:21.405Z,58.37
2023-02-16T19:43:49.031Z,58.33
2023-02-16T19:46:16.448Z,58.25
2023-02-16T19:48:45.968Z,58.50
2023-02-16T19:51:14.212Z,58.49
2023-02-16T19:53:42.940Z,58.21
2023-02-16T19:56:17.024Z,58.25
2023-02-16T19:58:44.906Z,58.11
2023-02-16T20:01:18.230Z,57.92
2023-02-16T20:03:46.363Z,62.00
2023-02-16T20:06:20.527Z,59.26
2023-02-16T20:08:49.634Z,57.94
2023-02-16T20:11:19.298Z,57.45
2023-02-16T20:13:47.126Z,56.88
2023-02-16T20:16:16.754Z,67.23
2023-02-16T20:18:44.508Z,64.35
2023-02-16T20:21:17.569Z,61.36
2023-02-16T20:23:46.314Z,58.18
2023-02-16T20:26:17.742Z,57.71
2023-02-16T20:28:45.893Z,57.25
2023-02-16T20:31:26.701Z,57.07
2023-02-16T20:33:54.848Z,57.19
2023-02-16T20:36:22.928Z,57.40
2023-02-16T20:38:50.733Z,57.25
2023-02-16T20:41:19.307Z,57.54
2023-02-16T20:43:46.994Z,57.35
2023-02-16T20:46:15.586Z,57.47
2023-02-16T20:48:44.037Z,57.33
2023-02-16T20:51:12.965Z,57.26
2023-02-16T20:53:40.894Z,57.22
2023-02-16T20:56:14.655Z,56.95
2023-02-16T20:58:43.439Z,56.65
2023-02-16T21:01:17.533Z,56.29
2023-02-16T21:03:44.881Z,56.13
2023-02-16T21:06:12.565Z,56.32
2023-02-16T21:08:40.071Z,56.56
2023-02-16T21:11:07.673Z,56.67
2023-02-16T21:13:35.624Z,56.83
2023-02-16T21:16:03.689Z,57.12
2023-02-16T21:18:31.306Z,57.36
2023-02-16T21:21:00.567Z,57.69
2023-02-16T21:23:28.549Z,57.89
2023-02-16T21:26:05.134Z,57.51
2023-02-16T21:28:33.001Z,57.77
2023-02-16T21:31:05.435Z,57.79
2023-02-16T21:33:33.598Z,57.71
2023-02-16T21:36:08.953Z,57.57
2023-02-16T21:38:37.427Z,56.93
2023-02-16T21:41:24.918Z,56.93
2023-02-16T21:43:57.314Z,57.00
2023-02-16T21:46:24.833Z,57.38
2023-02-16T21:48:52.285Z,56.92
2023-02-16T21:51:24.131Z,56.85
2023-02-16T21:53:53.226Z,56.95
2023-02-16T21:56:37.475Z,56.82
2023-02-16T21:59:07.714Z,57.15
2023-02-16T22:01:38.313Z,57.30
2023-02-16T22:04:06.135Z,57.59
2023-02-16T22:06:37.552Z,57.81
2023-02-16T22:09:10.638Z,58.21
2023-02-16T22:11:38.713Z,58.02
2023-02-16T22:14:06.582Z,58.04
2023-02-16T22:16:35.550Z,57.68
2023-02-16T22:19:09.476Z,57.97
2023-02-16T22:21:38.566Z,57.38
2023-02-16T22:24:06.943Z,57.69
2023-02-16T22:26:35.361Z,57.90
2023-02-16T22:29:04.045Z,58.53
2023-02-16T22:31:32.388Z,58.64
2023-02-16T22:34:02.446Z,58.70
2023-02-16T22:36:30.597Z,59.00
2023-02-16T22:38:58.389Z,58.94
2023-02-16T22:41:26.208Z,59.03
2023-02-16T22:43:55.342Z,59.11
2023-02-16T22:46:24.070Z,58.79
2023-02-16T22:48:52.096Z,59.25
2023-02-16T22:51:20.520Z,58.90
2023-02-16T22:53:48.541Z,58.63
2023-02-16T22:56:19.461Z,58.00
2023-02-16T22:58:46.978Z,58.18
2023-02-16T23:01:20.179Z,58.20
2023-02-16T23:03:49.721Z,58.38
2023-02-16T23:06:20.344Z,58.13
2023-02-16T23:08:53.107Z,58.23
2023-02-16T23:11:20.951Z,58.25
2023-02-16T23:13:48.405Z,58.19
2023-02-16T23:16:17.906Z,58.14
2023-02-16T23:18:46.052Z,58.27
2023-02-16T23:21:17.513Z,58.21
2023-02-16T23:23:45.664Z,58.22
2023-02-16T23:26:13.846Z,57.99
2023-02-16T23:28:42.485Z,58.16
2023-02-16T23:31:10.728Z,58.30
2023-02-16T23:33:39.437Z,58.39
2023-02-16T23:36:07.472Z,57.73
2023-02-16T23:38:35.343Z,57.71
2023-02-16T23:41:08.166Z,57.84
2023-02-16T23:43:35.894Z,57.62
2023-02-16T23:46:04.998Z,57.63
2023-02-16T23:48:32.756Z,58.01
2023-02-16T23:51:00.152Z,58.22
2023-02-16T23:53:28.626Z,58.16
2023-02-16T23:56:12.985Z,58.20
2023-02-16T23:58:42.197Z,58.46
